sensor_id;sensor_type;location;lat;lon;timestamp;P1;durP1;ratioP1;P2;durP2;ratioP2
48481;SDS011;34284;48.278;16.378;2023-05-13T00:01:30;284.23;;;129.57;;
48481;SDS011;34284;48.278;16.378;2023-05-13T00:04:02;286.33;;;133.83;;
48481;SDS011;34284;48.278;16.378;2023-05-13T00:06:28;266.93;;;130.23;;
48481;SDS011;34284;48.278;16.378;2023-05-13T00:08:54;273.73;;;131.93;;
48481;SDS011;34284;48.278;16.378;2023-05-13T00:11:20;271.30;;;131.47;;
48481;SDS011;34284;48.278;16.378;2023-05-13T00:13:46;260.13;;;123.70;;
48481;SDS011;34284;48.278;16.378;2023-05-13T00:16:12;273.40;;;128.43;;
48481;SDS011;34284;48.278;16.378;2023-05-13T00:18:38;271.53;;;129.13;;
48481;SDS011;34284;48.278;16.378;2023-05-13T00:21:04;260.50;;;124.07;;
48481;SDS011;34284;48.278;16.378;2023-05-13T00:23:31;265.07;;;127.03;;
48481;SDS011;34284;48.278;16.378;2023-05-13T00:25:57;259.33;;;122.83;;
48481;SDS011;34284;48.278;16.378;2023-05-13T00:28:23;276.10;;;129.87;;
48481;SDS011;34284;48.278;16.378;2023-05-13T00:30:49;275.33;;;132.50;;
48481;SDS011;34284;48.278;16.378;2023-05-13T00:33:15;268.40;;;130.47;;
48481;SDS011;34284;48.278;16.378;2023-05-13T00:35:41;270.10;;;131.90;;
48481;SDS011;34284;48.278;16.378;2023-05-13T00:38:07;271.40;;;132.10;;
48481;SDS011;34284;48.278;16.378;2023-05-13T00:40:36;269.33;;;129.17;;
48481;SDS011;34284;48.278;16.378;2023-05-13T00:43:03;265.57;;;129.60;;
48481;SDS011;34284;48.278;16.378;2023-05-13T00:45:29;264.03;;;132.10;;
48481;SDS011;34284;48.278;16.378;2023-05-13T00:47:55;262.07;;;128.47;;
48481;SDS011;34284;48.278;16.378;2023-05-13T00:50:21;271.50;;;131.50;;
48481;SDS011;34284;48.278;16.378;2023-05-13T00:52:48;265.10;;;130.23;;
48481;SDS011;34284;48.278;16.378;2023-05-13T00:55:15;275.33;;;131.33;;
48481;SDS011;34284;48.278;16.378;2023-05-13T00:57:41;271.70;;;128.13;;
48481;SDS011;34284;48.278;16.378;2023-05-13T01:00:07;264.50;;;128.03;;
48481;SDS011;34284;48.278;16.378;2023-05-13T01:05:18;260.43;;;125.17;;
48481;SDS011;34284;48.278;16.378;2023-05-13T01:07:52;270.03;;;133.10;;
48481;SDS011;34284;48.278;16.378;2023-05-13T01:12:52;269.67;;;128.20;;
48481;SDS011;34284;48.278;16.378;2023-05-13T01:15:23;266.23;;;128.97;;
48481;SDS011;34284;48.278;16.378;2023-05-13T01:20:22;275.10;;;137.13;;
48481;SDS011;34284;48.278;16.378;2023-05-13T01:22:48;275.27;;;138.43;;
48481;SDS011;34284;48.278;16.378;2023-05-13T01:25:14;269.03;;;137.23;;
48481;SDS011;34284;48.278;16.378;2023-05-13T01:27:41;274.53;;;137.50;;
48481;SDS011;34284;48.278;16.378;2023-05-13T01:30:07;269.70;;;133.57;;
48481;SDS011;34284;48.278;16.378;2023-05-13T01:32:34;259.03;;;128.47;;
48481;SDS011;34284;48.278;16.378;2023-05-13T01:35:00;261.30;;;126.77;;
48481;SDS011;34284;48.278;16.378;2023-05-13T01:37:27;262.03;;;132.03;;
48481;SDS011;34284;48.278;16.378;2023-05-13T01:39:53;280.93;;;127.70;;
48481;SDS011;34284;48.278;16.378;2023-05-13T01:42:19;284.33;;;134.77;;
48481;SDS011;34284;48.278;16.378;2023-05-13T01:44:45;264.23;;;126.73;;
48481;SDS011;34284;48.278;16.378;2023-05-13T01:47:11;272.93;;;133.37;;
48481;SDS011;34284;48.278;16.378;2023-05-13T01:49:37;260.13;;;124.90;;
48481;SDS011;34284;48.278;16.378;2023-05-13T01:52:03;261.33;;;126.83;;
48481;SDS011;34284;48.278;16.378;2023-05-13T01:54:30;272.27;;;128.90;;
48481;SDS011;34284;48.278;16.378;2023-05-13T01:56:56;264.50;;;127.70;;
48481;SDS011;34284;48.278;16.378;2023-05-13T01:59:22;273.97;;;137.17;;
48481;SDS011;34284;48.278;16.378;2023-05-13T02:01:48;267.90;;;132.47;;
48481;SDS011;34284;48.278;16.378;2023-05-13T02:04:14;267.47;;;123.13;;
48481;SDS011;34284;48.278;16.378;2023-05-13T02:06:40;267.60;;;128.27;;
48481;SDS011;34284;48.278;16.378;2023-05-13T02:09:06;260.07;;;128.83;;
48481;SDS011;34284;48.278;16.378;2023-05-13T02:11:32;263.83;;;129.53;;
48481;SDS011;34284;48.278;16.378;2023-05-13T02:13:59;260.90;;;130.70;;
48481;SDS011;34284;48.278;16.378;2023-05-13T02:16:25;267.03;;;129.70;;
48481;SDS011;34284;48.278;16.378;2023-05-13T02:18:51;267.67;;;133.50;;
48481;SDS011;34284;48.278;16.378;2023-05-13T02:21:17;264.07;;;131.27;;
48481;SDS011;34284;48.278;16.378;2023-05-13T02:23:43;265.40;;;127.47;;
48481;SDS011;34284;48.278;16.378;2023-05-13T02:26:09;261.47;;;127.23;;
48481;SDS011;34284;48.278;16.378;2023-05-13T02:28:35;264.97;;;132.23;;
48481;SDS011;34284;48.278;16.378;2023-05-13T02:31:01;263.23;;;128.43;;
48481;SDS011;34284;48.278;16.378;2023-05-13T02:33:27;267.13;;;125.50;;
48481;SDS011;34284;48.278;16.378;2023-05-13T02:35:53;269.17;;;127.83;;
48481;SDS011;34284;48.278;16.378;2023-05-13T02:38:19;276.43;;;132.03;;
48481;SDS011;34284;48.278;16.378;2023-05-13T02:40:45;271.27;;;133.67;;
48481;SDS011;34284;48.278;16.378;2023-05-13T02:43:12;263.13;;;124.40;;
48481;SDS011;34284;48.278;16.378;2023-05-13T02:45:41;261.43;;;124.03;;
48481;SDS011;34284;48.278;16.378;2023-05-13T02:48:07;276.80;;;133.97;;
48481;SDS011;34284;48.278;16.378;2023-05-13T02:50:34;262.67;;;127.70;;
48481;SDS011;34284;48.278;16.378;2023-05-13T02:53:00;262.00;;;126.40;;
48481;SDS011;34284;48.278;16.378;2023-05-13T02:55:26;274.07;;;131.43;;
48481;SDS011;34284;48.278;16.378;2023-05-13T02:57:52;273.87;;;128.17;;
48481;SDS011;34284;48.278;16.378;2023-05-13T03:00:20;269.60;;;127.30;;
48481;SDS011;34284;48.278;16.378;2023-05-13T03:02:46;275.70;;;130.60;;
48481;SDS011;34284;48.278;16.378;2023-05-13T03:05:12;275.73;;;137.70;;
48481;SDS011;34284;48.278;16.378;2023-05-13T03:07:38;271.20;;;133.03;;
48481;SDS011;34284;48.278;16.378;2023-05-13T03:10:05;266.83;;;127.53;;
48481;SDS011;34284;48.278;16.378;2023-05-13T03:12:31;264.47;;;127.37;;
48481;SDS011;34284;48.278;16.378;2023-05-13T03:14:57;277.87;;;129.67;;
48481;SDS011;34284;48.278;16.378;2023-05-13T03:17:23;269.43;;;133.33;;
48481;SDS011;34284;48.278;16.378;2023-05-13T03:19:49;292.47;;;137.43;;
48481;SDS011;34284;48.278;16.378;2023-05-13T03:22:16;282.97;;;130.53;;
48481;SDS011;34284;48.278;16.378;2023-05-13T03:24:42;270.30;;;130.10;;
48481;SDS011;34284;48.278;16.378;2023-05-13T03:27:08;269.03;;;133.37;;
48481;SDS011;34284;48.278;16.378;2023-05-13T03:29:34;266.70;;;132.53;;
48481;SDS011;34284;48.278;16.378;2023-05-13T03:32:00;268.23;;;134.17;;
48481;SDS011;34284;48.278;16.378;2023-05-13T03:34:26;274.20;;;135.47;;
48481;SDS011;34284;48.278;16.378;2023-05-13T03:36:52;276.97;;;132.90;;
48481;SDS011;34284;48.278;16.378;2023-05-13T03:39:18;273.47;;;128.20;;
48481;SDS011;34284;48.278;16.378;2023-05-13T03:41:44;286.20;;;132.57;;
48481;SDS011;34284;48.278;16.378;2023-05-13T03:44:10;275.50;;;133.77;;
48481;SDS011;34284;48.278;16.378;2023-05-13T03:46:36;275.43;;;129.83;;
48481;SDS011;34284;48.278;16.378;2023-05-13T03:49:02;277.43;;;135.50;;
48481;SDS011;34284;48.278;16.378;2023-05-13T03:51:28;275.87;;;135.20;;
48481;SDS011;34284;48.278;16.378;2023-05-13T03:53:55;276.70;;;134.10;;
48481;SDS011;34284;48.278;16.378;2023-05-13T03:56:21;283.27;;;137.57;;
48481;SDS011;34284;48.278;16.378;2023-05-13T03:58:47;276.27;;;133.97;;
48481;SDS011;34284;48.278;16.378;2023-05-13T04:01:13;269.90;;;128.37;;
48481;SDS011;34284;48.278;16.378;2023-05-13T04:03:39;268.00;;;130.93;;
48481;SDS011;34284;48.278;16.378;2023-05-13T04:06:08;285.13;;;132.07;;
48481;SDS011;34284;48.278;16.378;2023-05-13T04:08:34;279.47;;;133.30;;
48481;SDS011;34284;48.278;16.378;2023-05-13T04:11:00;279.27;;;136.80;;
48481;SDS011;34284;48.278;16.378;2023-05-13T04:13:26;278.07;;;133.03;;
48481;SDS011;34284;48.278;16.378;2023-05-13T04:15:52;282.80;;;139.73;;
48481;SDS011;34284;48.278;16.378;2023-05-13T04:18:19;275.70;;;139.50;;
48481;SDS011;34284;48.278;16.378;2023-05-13T04:20:45;283.83;;;132.43;;
48481;SDS011;34284;48.278;16.378;2023-05-13T04:23:11;284.73;;;133.03;;
48481;SDS011;34284;48.278;16.378;2023-05-13T04:25:37;278.20;;;132.03;;
48481;SDS011;34284;48.278;16.378;2023-05-13T04:28:04;281.33;;;134.60;;
48481;SDS011;34284;48.278;16.378;2023-05-13T04:30:30;281.70;;;132.13;;
48481;SDS011;34284;48.278;16.378;2023-05-13T04:32:56;296.00;;;140.83;;
48481;SDS011;34284;48.278;16.378;2023-05-13T04:35:22;278.83;;;133.47;;
48481;SDS011;34284;48.278;16.378;2023-05-13T04:37:48;276.23;;;130.90;;
48481;SDS011;34284;48.278;16.378;2023-05-13T04:40:14;288.87;;;129.03;;
48481;SDS011;34284;48.278;16.378;2023-05-13T04:42:40;283.20;;;135.47;;
48481;SDS011;34284;48.278;16.378;2023-05-13T04:45:06;279.70;;;133.97;;
48481;SDS011;34284;48.278;16.378;2023-05-13T04:47:32;270.07;;;128.97;;
48481;SDS011;34284;48.278;16.378;2023-05-13T04:49:59;272.20;;;132.57;;
48481;SDS011;34284;48.278;16.378;2023-05-13T04:52:25;277.63;;;132.83;;
48481;SDS011;34284;48.278;16.378;2023-05-13T04:54:51;283.17;;;143.87;;
48481;SDS011;34284;48.278;16.378;2023-05-13T04:57:17;280.13;;;144.77;;
48481;SDS011;34284;48.278;16.378;2023-05-13T04:59:43;275.90;;;142.53;;
48481;SDS011;34284;48.278;16.378;2023-05-13T05:02:09;275.17;;;136.57;;
48481;SDS011;34284;48.278;16.378;2023-05-13T05:04:35;271.50;;;134.57;;
48481;SDS011;34284;48.278;16.378;2023-05-13T05:07:01;276.50;;;134.77;;
48481;SDS011;34284;48.278;16.378;2023-05-13T05:09:27;276.43;;;134.53;;
48481;SDS011;34284;48.278;16.378;2023-05-13T05:11:54;275.33;;;138.97;;
48481;SDS011;34284;48.278;16.378;2023-05-13T05:14:20;278.43;;;139.47;;
48481;SDS011;34284;48.278;16.378;2023-05-13T05:16:46;277.90;;;136.23;;
48481;SDS011;34284;48.278;16.378;2023-05-13T05:19:12;276.60;;;136.77;;
48481;SDS011;34284;48.278;16.378;2023-05-13T05:21:38;275.43;;;133.00;;
48481;SDS011;34284;48.278;16.378;2023-05-13T05:24:04;280.10;;;135.57;;
48481;SDS011;34284;48.278;16.378;2023-05-13T05:26:30;281.70;;;138.93;;
48481;SDS011;34284;48.278;16.378;2023-05-13T05:28:56;293.60;;;138.93;;
48481;SDS011;34284;48.278;16.378;2023-05-13T05:31:22;280.50;;;134.37;;
48481;SDS011;34284;48.278;16.378;2023-05-13T05:33:50;279.93;;;135.63;;
48481;SDS011;34284;48.278;16.378;2023-05-13T05:36:17;278.03;;;139.27;;
48481;SDS011;34284;48.278;16.378;2023-05-13T05:38:43;276.80;;;132.50;;
48481;SDS011;34284;48.278;16.378;2023-05-13T05:41:09;278.43;;;133.07;;
48481;SDS011;34284;48.278;16.378;2023-05-13T05:43:35;276.00;;;135.73;;
48481;SDS011;34284;48.278;16.378;2023-05-13T05:46:01;282.83;;;136.30;;
48481;SDS011;34284;48.278;16.378;2023-05-13T05:48:27;279.60;;;138.07;;
48481;SDS011;34284;48.278;16.378;2023-05-13T05:50:53;287.00;;;139.57;;
48481;SDS011;34284;48.278;16.378;2023-05-13T05:53:20;287.47;;;140.23;;
48481;SDS011;34284;48.278;16.378;2023-05-13T05:55:46;287.30;;;143.43;;
48481;SDS011;34284;48.278;16.378;2023-05-13T05:58:15;288.50;;;138.03;;
48481;SDS011;34284;48.278;16.378;2023-05-13T06:00:41;289.90;;;144.90;;
48481;SDS011;34284;48.278;16.378;2023-05-13T06:03:07;280.10;;;139.23;;
48481;SDS011;34284;48.278;16.378;2023-05-13T06:05:33;285.97;;;136.00;;
48481;SDS011;34284;48.278;16.378;2023-05-13T06:08:00;284.20;;;139.83;;
48481;SDS011;34284;48.278;16.378;2023-05-13T06:10:26;282.17;;;136.50;;
48481;SDS011;34284;48.278;16.378;2023-05-13T06:12:52;284.37;;;136.37;;
48481;SDS011;34284;48.278;16.378;2023-05-13T06:15:18;274.47;;;133.73;;
48481;SDS011;34284;48.278;16.378;2023-05-13T06:17:44;281.43;;;134.30;;
48481;SDS011;34284;48.278;16.378;2023-05-13T06:20:10;282.00;;;141.73;;
48481;SDS011;34284;48.278;16.378;2023-05-13T06:22:36;282.20;;;135.27;;
48481;SDS011;34284;48.278;16.378;2023-05-13T06:25:02;286.63;;;144.07;;
48481;SDS011;34284;48.278;16.378;2023-05-13T06:27:28;290.60;;;145.10;;
48481;SDS011;34284;48.278;16.378;2023-05-13T06:29:54;295.83;;;147.30;;
48481;SDS011;34284;48.278;16.378;2023-05-13T06:32:20;286.93;;;141.90;;
48481;SDS011;34284;48.278;16.378;2023-05-13T06:34:46;279.00;;;138.03;;
48481;SDS011;34284;48.278;16.378;2023-05-13T06:37:13;277.97;;;141.47;;
48481;SDS011;34284;48.278;16.378;2023-05-13T06:39:39;276.50;;;138.10;;
48481;SDS011;34284;48.278;16.378;2023-05-13T06:42:05;278.13;;;131.87;;
48481;SDS011;34284;48.278;16.378;2023-05-13T06:44:31;292.30;;;145.50;;
48481;SDS011;34284;48.278;16.378;2023-05-13T06:46:57;286.40;;;139.47;;
48481;SDS011;34284;48.278;16.378;2023-05-13T06:49:23;286.03;;;140.97;;
48481;SDS011;34284;48.278;16.378;2023-05-13T06:51:50;284.47;;;137.90;;
48481;SDS011;34284;48.278;16.378;2023-05-13T06:54:16;282.47;;;138.87;;
48481;SDS011;34284;48.278;16.378;2023-05-13T06:56:42;280.07;;;136.03;;
48481;SDS011;34284;48.278;16.378;2023-05-13T06:59:08;289.70;;;138.93;;
48481;SDS011;34284;48.278;16.378;2023-05-13T07:01:34;290.00;;;141.40;;
48481;SDS011;34284;48.278;16.378;2023-05-13T07:04:00;295.43;;;140.20;;
48481;SDS011;34284;48.278;16.378;2023-05-13T07:06:26;302.83;;;142.90;;
48481;SDS011;34284;48.278;16.378;2023-05-13T07:08:52;305.43;;;142.03;;
48481;SDS011;34284;48.278;16.378;2023-05-13T07:11:18;290.07;;;134.90;;
48481;SDS011;34284;48.278;16.378;2023-05-13T07:13:45;293.03;;;145.50;;
48481;SDS011;34284;48.278;16.378;2023-05-13T07:16:11;287.40;;;139.17;;
48481;SDS011;34284;48.278;16.378;2023-05-13T07:18:37;293.10;;;141.97;;
48481;SDS011;34284;48.278;16.378;2023-05-13T07:21:03;305.03;;;147.33;;
48481;SDS011;34284;48.278;16.378;2023-05-13T07:23:30;304.67;;;145.17;;
48481;SDS011;34284;48.278;16.378;2023-05-13T07:25:56;296.70;;;142.77;;
48481;SDS011;34284;48.278;16.378;2023-05-13T07:28:22;316.20;;;175.17;;
48481;SDS011;34284;48.278;16.378;2023-05-13T07:30:48;290.70;;;141.87;;
48481;SDS011;34284;48.278;16.378;2023-05-13T07:33:17;286.63;;;133.73;;
48481;SDS011;34284;48.278;16.378;2023-05-13T07:35:43;285.77;;;134.40;;
48481;SDS011;34284;48.278;16.378;2023-05-13T07:38:09;296.40;;;141.00;;
48481;SDS011;34284;48.278;16.378;2023-05-13T07:40:36;288.87;;;131.83;;
48481;SDS011;34284;48.278;16.378;2023-05-13T07:43:02;287.43;;;135.10;;
48481;SDS011;34284;48.278;16.378;2023-05-13T07:45:28;290.77;;;132.30;;
48481;SDS011;34284;48.278;16.378;2023-05-13T07:47:54;294.40;;;138.20;;
48481;SDS011;34284;48.278;16.378;2023-05-13T07:50:20;287.03;;;133.50;;
48481;SDS011;34284;48.278;16.378;2023-05-13T07:52:46;289.53;;;136.23;;
48481;SDS011;34284;48.278;16.378;2023-05-13T07:55:13;299.63;;;146.53;;
48481;SDS011;34284;48.278;16.378;2023-05-13T07:57:39;291.27;;;135.80;;
48481;SDS011;34284;48.278;16.378;2023-05-13T08:00:06;304.67;;;133.20;;
48481;SDS011;34284;48.278;16.378;2023-05-13T08:02:32;305.30;;;142.63;;
48481;SDS011;34284;48.278;16.378;2023-05-13T08:04:59;298.87;;;139.67;;
48481;SDS011;34284;48.278;16.378;2023-05-13T08:07:25;306.23;;;137.50;;
48481;SDS011;34284;48.278;16.378;2023-05-13T08:09:51;301.80;;;143.23;;
48481;SDS011;34284;48.278;16.378;2023-05-13T08:12:17;308.10;;;147.80;;
48481;SDS011;34284;48.278;16.378;2023-05-13T08:14:43;301.37;;;150.60;;
48481;SDS011;34284;48.278;16.378;2023-05-13T08:17:09;304.43;;;139.00;;
48481;SDS011;34284;48.278;16.378;2023-05-13T08:19:36;295.60;;;137.43;;
48481;SDS011;34284;48.278;16.378;2023-05-13T08:22:02;338.20;;;218.47;;
48481;SDS011;34284;48.278;16.378;2023-05-13T08:24:28;308.27;;;148.33;;
48481;SDS011;34284;48.278;16.378;2023-05-13T08:26:54;306.67;;;142.67;;
48481;SDS011;34284;48.278;16.378;2023-05-13T08:29:20;304.23;;;137.70;;
48481;SDS011;34284;48.278;16.378;2023-05-13T08:31:46;295.93;;;135.70;;
48481;SDS011;34284;48.278;16.378;2023-05-13T08:34:12;294.37;;;137.37;;
48481;SDS011;34284;48.278;16.378;2023-05-13T08:36:39;292.23;;;138.77;;
48481;SDS011;34284;48.278;16.378;2023-05-13T08:39:05;299.20;;;140.77;;
48481;SDS011;34284;48.278;16.378;2023-05-13T08:41:31;299.33;;;138.23;;
48481;SDS011;34284;48.278;16.378;2023-05-13T08:43:58;304.30;;;137.90;;
48481;SDS011;34284;48.278;16.378;2023-05-13T08:46:26;293.50;;;137.90;;
48481;SDS011;34284;48.278;16.378;2023-05-13T08:48:53;351.77;;;209.73;;
48481;SDS011;34284;48.278;16.378;2023-05-13T08:51:20;336.47;;;153.50;;
48481;SDS011;34284;48.278;16.378;2023-05-13T08:53:46;276.97;;;138.20;;
48481;SDS011;34284;48.278;16.378;2023-05-13T08:56:12;258.43;;;139.20;;
48481;SDS011;34284;48.278;16.378;2023-05-13T08:58:38;264.70;;;150.27;;
48481;SDS011;34284;48.278;16.378;2023-05-13T09:01:06;265.67;;;151.53;;
48481;SDS011;34284;48.278;16.378;2023-05-13T09:03:32;261.53;;;149.40;;
48481;SDS011;34284;48.278;16.378;2023-05-13T09:06:01;258.90;;;147.10;;
48481;SDS011;34284;48.278;16.378;2023-05-13T09:08:27;270.77;;;154.87;;
48481;SDS011;34284;48.278;16.378;2023-05-13T09:10:54;281.07;;;171.13;;
48481;SDS011;34284;48.278;16.378;2023-05-13T09:13:20;264.13;;;151.30;;
48481;SDS011;34284;48.278;16.378;2023-05-13T09:15:46;259.90;;;147.27;;
48481;SDS011;34284;48.278;16.378;2023-05-13T09:18:15;273.10;;;156.30;;
48481;SDS011;34284;48.278;16.378;2023-05-13T09:20:41;279.33;;;148.27;;
48481;SDS011;34284;48.278;16.378;2023-05-13T09:23:08;297.80;;;149.17;;
48481;SDS011;34284;48.278;16.378;2023-05-13T09:25:38;276.80;;;144.80;;
48481;SDS011;34284;48.278;16.378;2023-05-13T09:28:05;289.37;;;149.23;;
48481;SDS011;34284;48.278;16.378;2023-05-13T09:30:35;271.20;;;159.23;;
48481;SDS011;34284;48.278;16.378;2023-05-13T09:35:39;299.43;;;159.73;;
48481;SDS011;34284;48.278;16.378;2023-05-13T09:40:38;300.33;;;154.13;;
48481;SDS011;34284;48.278;16.378;2023-05-13T09:43:05;288.60;;;150.53;;
48481;SDS011;34284;48.278;16.378;2023-05-13T09:45:34;293.10;;;155.87;;
48481;SDS011;34284;48.278;16.378;2023-05-13T09:48:01;298.07;;;155.60;;
48481;SDS011;34284;48.278;16.378;2023-05-13T09:50:27;284.10;;;153.77;;
48481;SDS011;34284;48.278;16.378;2023-05-13T09:52:53;277.90;;;150.70;;
48481;SDS011;34284;48.278;16.378;2023-05-13T09:55:19;295.10;;;160.23;;
48481;SDS011;34284;48.278;16.378;2023-05-13T09:57:47;279.83;;;150.07;;
48481;SDS011;34284;48.278;16.378;2023-05-13T10:00:13;283.97;;;150.00;;
48481;SDS011;34284;48.278;16.378;2023-05-13T10:02:39;293.43;;;152.60;;
48481;SDS011;34284;48.278;16.378;2023-05-13T10:05:06;299.50;;;151.10;;
48481;SDS011;34284;48.278;16.378;2023-05-13T10:07:33;285.27;;;144.87;;
48481;SDS011;34284;48.278;16.378;2023-05-13T10:10:02;287.80;;;149.50;;
48481;SDS011;34284;48.278;16.378;2023-05-13T10:12:29;282.90;;;153.70;;
48481;SDS011;34284;48.278;16.378;2023-05-13T10:14:56;296.03;;;158.33;;
48481;SDS011;34284;48.278;16.378;2023-05-13T10:17:23;323.10;;;212.23;;
48481;SDS011;34284;48.278;16.378;2023-05-13T10:19:50;303.77;;;157.40;;
48481;SDS011;34284;48.278;16.378;2023-05-13T10:22:49;302.03;;;157.33;;
48481;SDS011;34284;48.278;16.378;2023-05-13T10:25:08;318.97;;;163.97;;
48481;SDS011;34284;48.278;16.378;2023-05-13T10:27:35;303.80;;;163.37;;
48481;SDS011;34284;48.278;16.378;2023-05-13T10:30:01;315.77;;;166.77;;
48481;SDS011;34284;48.278;16.378;2023-05-13T10:32:33;310.63;;;164.37;;
48481;SDS011;34284;48.278;16.378;2023-05-13T10:35:00;311.53;;;168.77;;
48481;SDS011;34284;48.278;16.378;2023-05-13T10:37:32;301.47;;;163.63;;
48481;SDS011;34284;48.278;16.378;2023-05-13T10:42:40;296.80;;;163.37;;
48481;SDS011;34284;48.278;16.378;2023-05-13T10:45:08;293.50;;;164.77;;
48481;SDS011;34284;48.278;16.378;2023-05-13T10:47:35;321.83;;;178.07;;
48481;SDS011;34284;48.278;16.378;2023-05-13T10:50:47;347.83;;;193.97;;
48481;SDS011;34284;48.278;16.378;2023-05-13T10:52:54;337.90;;;188.00;;
48481;SDS011;34284;48.278;16.378;2023-05-13T10:55:25;295.73;;;161.93;;
48481;SDS011;34284;48.278;16.378;2023-05-13T10:58:07;371.00;;;200.63;;
48481;SDS011;34284;48.278;16.378;2023-05-13T11:00:35;305.27;;;172.50;;
48481;SDS011;34284;48.278;16.378;2023-05-13T11:03:12;303.17;;;168.37;;
48481;SDS011;34284;48.278;16.378;2023-05-13T11:05:45;321.33;;;174.07;;
48481;SDS011;34284;48.278;16.378;2023-05-13T11:08:31;361.27;;;215.00;;
48481;SDS011;34284;48.278;16.378;2023-05-13T11:11:00;365.13;;;190.63;;
48481;SDS011;34284;48.278;16.378;2023-05-13T11:13:35;372.90;;;183.33;;
48481;SDS011;34284;48.278;16.378;2023-05-13T11:16:03;561.60;;;504.63;;
48481;SDS011;34284;48.278;16.378;2023-05-13T11:18:32;391.53;;;259.20;;
48481;SDS011;34284;48.278;16.378;2023-05-13T11:21:45;286.93;;;176.30;;
48481;SDS011;34284;48.278;16.378;2023-05-13T11:24:14;310.83;;;166.20;;
48481;SDS011;34284;48.278;16.378;2023-05-13T11:26:43;297.60;;;172.53;;
48481;SDS011;34284;48.278;16.378;2023-05-13T11:29:10;299.57;;;167.67;;
48481;SDS011;34284;48.278;16.378;2023-05-13T11:31:49;303.27;;;175.63;;
48481;SDS011;34284;48.278;16.378;2023-05-13T11:34:21;306.57;;;171.70;;
48481;SDS011;34284;48.278;16.378;2023-05-13T11:36:48;302.17;;;173.87;;
48481;SDS011;34284;48.278;16.378;2023-05-13T11:39:15;306.63;;;176.73;;
48481;SDS011;34284;48.278;16.378;2023-05-13T11:41:43;301.97;;;170.47;;
48481;SDS011;34284;48.278;16.378;2023-05-13T11:44:09;295.30;;;171.57;;
48481;SDS011;34284;48.278;16.378;2023-05-13T11:46:35;297.97;;;164.47;;
48481;SDS011;34284;48.278;16.378;2023-05-13T11:49:02;293.13;;;166.57;;
48481;SDS011;34284;48.278;16.378;2023-05-13T11:51:28;287.03;;;155.47;;
48481;SDS011;34284;48.278;16.378;2023-05-13T11:54:02;289.00;;;157.97;;
48481;SDS011;34284;48.278;16.378;2023-05-13T11:56:28;284.65;;;153.48;;
48481;SDS011;34284;48.278;16.378;2023-05-13T11:58:55;287.03;;;152.97;;
48481;SDS011;34284;48.278;16.378;2023-05-13T12:01:21;284.33;;;157.67;;
48481;SDS011;34284;48.278;16.378;2023-05-13T12:03:47;283.13;;;156.97;;
48481;SDS011;34284;48.278;16.378;2023-05-13T12:06:13;295.67;;;167.17;;
48481;SDS011;34284;48.278;16.378;2023-05-13T12:08:43;282.60;;;169.27;;
48481;SDS011;34284;48.278;16.378;2023-05-13T12:11:10;288.93;;;156.97;;
48481;SDS011;34284;48.278;16.378;2023-05-13T12:13:37;287.57;;;159.33;;
48481;SDS011;34284;48.278;16.378;2023-05-13T12:16:04;293.17;;;163.63;;
48481;SDS011;34284;48.278;16.378;2023-05-13T12:18:30;284.77;;;157.03;;
48481;SDS011;34284;48.278;16.378;2023-05-13T12:20:57;280.10;;;156.57;;
48481;SDS011;34284;48.278;16.378;2023-05-13T12:23:23;292.63;;;155.23;;
48481;SDS011;34284;48.278;16.378;2023-05-13T12:25:49;272.73;;;155.33;;
48481;SDS011;34284;48.278;16.378;2023-05-13T12:33:17;287.80;;;164.07;;
48481;SDS011;34284;48.278;16.378;2023-05-13T12:35:45;287.17;;;160.70;;
48481;SDS011;34284;48.278;16.378;2023-05-13T12:38:16;299.70;;;158.60;;
48481;SDS011;34284;48.278;16.378;2023-05-13T12:40:43;293.07;;;163.43;;
48481;SDS011;34284;48.278;16.378;2023-05-13T12:43:09;288.83;;;161.43;;
48481;SDS011;34284;48.278;16.378;2023-05-13T12:45:36;274.73;;;155.20;;
48481;SDS011;34284;48.278;16.378;2023-05-13T12:48:02;270.00;;;150.87;;
48481;SDS011;34284;48.278;16.378;2023-05-13T12:50:28;272.70;;;156.27;;
48481;SDS011;34284;48.278;16.378;2023-05-13T12:52:54;273.90;;;152.20;;
48481;SDS011;34284;48.278;16.378;2023-05-13T12:55:21;279.90;;;151.87;;
48481;SDS011;34284;48.278;16.378;2023-05-13T12:58:00;282.33;;;152.37;;
48481;SDS011;34284;48.278;16.378;2023-05-13T13:00:27;270.23;;;149.67;;
48481;SDS011;34284;48.278;16.378;2023-05-13T13:02:53;267.93;;;144.37;;
48481;SDS011;34284;48.278;16.378;2023-05-13T13:05:19;274.47;;;148.03;;
48481;SDS011;34284;48.278;16.378;2023-05-13T13:07:46;269.53;;;146.00;;
48481;SDS011;34284;48.278;16.378;2023-05-13T13:10:12;279.97;;;149.10;;
48481;SDS011;34284;48.278;16.378;2023-05-13T13:12:38;276.23;;;152.27;;
48481;SDS011;34284;48.278;16.378;2023-05-13T13:15:05;278.53;;;154.80;;
48481;SDS011;34284;48.278;16.378;2023-05-13T13:17:31;282.43;;;162.03;;
48481;SDS011;34284;48.278;16.378;2023-05-13T13:19:57;287.83;;;158.53;;
48481;SDS011;34284;48.278;16.378;2023-05-13T13:22:23;276.53;;;153.13;;
48481;SDS011;34284;48.278;16.378;2023-05-13T13:24:49;280.60;;;150.93;;
48481;SDS011;34284;48.278;16.378;2023-05-13T13:27:15;275.27;;;149.23;;
48481;SDS011;34284;48.278;16.378;2023-05-13T13:29:41;277.47;;;144.77;;
48481;SDS011;34284;48.278;16.378;2023-05-13T13:32:07;278.40;;;147.70;;
48481;SDS011;34284;48.278;16.378;2023-05-13T13:34:33;268.47;;;141.47;;
48481;SDS011;34284;48.278;16.378;2023-05-13T13:36:59;286.90;;;152.60;;
48481;SDS011;34284;48.278;16.378;2023-05-13T13:39:25;270.37;;;146.40;;
48481;SDS011;34284;48.278;16.378;2023-05-13T13:41:51;268.13;;;143.00;;
48481;SDS011;34284;48.278;16.378;2023-05-13T13:44:17;276.63;;;147.83;;
48481;SDS011;34284;48.278;16.378;2023-05-13T13:46:43;286.67;;;146.33;;
48481;SDS011;34284;48.278;16.378;2023-05-13T13:49:09;311.10;;;148.37;;
48481;SDS011;34284;48.278;16.378;2023-05-13T13:51:35;318.83;;;143.87;;
48481;SDS011;34284;48.278;16.378;2023-05-13T13:54:02;315.07;;;150.73;;
48481;SDS011;34284;48.278;16.378;2023-05-13T13:56:28;316.47;;;147.50;;
48481;SDS011;34284;48.278;16.378;2023-05-13T13:58:54;307.27;;;144.10;;
48481;SDS011;34284;48.278;16.378;2023-05-13T14:01:20;302.67;;;148.40;;
48481;SDS011;34284;48.278;16.378;2023-05-13T14:03:51;297.10;;;142.17;;